Lemmon, South Dakota
Current Conditions -  °F | °C
As of 1:53 AM on Thursday 23 Oct 2014 (Local Time) from KHEI Reporting Station
Clear Clear  
Wind Chill: 40°   Ceiling: Unl
Heat Index: 40°   Visibility: 10mi
Dew Point: 26°   Wind: 3mph
Humidity: 58%   Direction: 200°SSW
Pressure: 29.95"   Gusts: NA
Location:  45.94°N, 102.16°W
Report Text: KHEI 230753Z AUTO 20003KT 10SM CLR 04/M03 A2995 RMK AO2 SLP145 T00441033
Loading
Personal Weather Stations






























Interactive Weather Map
Tropical Storm Tracking
New forecast layout! Learn more

10-Day Weather Forecast

Advertisements
Track Severe Weather on mobile